Terminal Aerodrome Forecast
Issued by NWS

Current Version | Previous Version | Graphics & Text | Print | Product List | Glossary On
Versions: 1 2 3 4 5 6 7 8 9 10 11 12 13 14 15 16 17
000
FTUS41 KPBZ 270500
TAFMGW
TAF
KMGW 270523Z 2706/2806 21005KT 5SM -SHRA BR BKN035 OVC060
      TEMPO 2706/2708 2SM TSRA OVC030CB
     FM270800 20005KT 6SM -SHRA OVC030
     FM271200 23005KT P6SM VCSH BKN035
     FM271700 23008KT 6SM -SHRA VCTS OVC035CB
     FM280300 23005KT P6SM VCSH BKN035=

USA.gov is the U.S. government's official web portal to all federal, state and local government web resources and services.